CheckWX is a tool to help pilots better visualize weather data.  It is not intended as a substitute for an official pre-flight weather briefing.

16:49:21 UTC

LGSA METAR
Chania International Airport
Souda, Greece
Current

29 mins ago

LGSA 071620Z 33010KT 7000 -RA SCT008 BKN025 OVC080 10/09 Q1018
Observed
Apr-7 @ 16:20 UTC
Wind
  • 330° at 10 KTS
Visibility
7001 meters
Flight Rules
MVFR
Conditions
Light Rain
Cloud Levels
  • Scattered at 800' AGL
  • Broken at 2,500' AGL
  • Overcast at 8,000' AGL
Temperature
10°C / 50°F
Dewpoint
C / 48°F
Humidity
94%
Altimeter
30.06" Hg
Pressure
1017.92 hPa
Previous

59 mins ago

LGSA 071550Z 33011KT 6000 -RA SCT008 BKN025 OVC080 10/09 Q1018
Observed
Apr-7 @ 15:50 UTC
Wind
  • 330° at 11 KTS
Visibility
6003 meters
Flight Rules
MVFR
Conditions
Light Rain
Cloud Levels
  • Scattered at 800' AGL
  • Broken at 2,500' AGL
  • Overcast at 8,000' AGL
Temperature
10°C / 50°F
Dewpoint
C / 48°F
Humidity
94%
Altimeter
30.06" Hg
Pressure
1017.92 hPa
Previous

1 hour ago

LGSA 071520Z 34010KT 4000 -RA BR SCT006 BKN020 OVC080 10/09 Q1019
Observed
Apr-7 @ 15:20 UTC
Wind
  • 340° at 10 KTS
Visibility
4007 meters
Flight Rules
IFR
Conditions
Light Rain, Mist
Cloud Levels
  • Scattered at 600' AGL
  • Broken at 2,000' AGL
  • Overcast at 8,000' AGL
Temperature
10°C / 50°F
Dewpoint
C / 48°F
Humidity
94%
Altimeter
30.09" Hg
Pressure
1018.92 hPa